Time;durP1;ratioP1;P1;durP2;ratioP2;P2;SDS_P1;SDS_P2;PMS_P1;PMS_P2;Temp;Humidity;BMP_temperature;BMP_pressure;BME280_temperature;BME280_humidity;BME280_pressure;Samples;Min_cycle;Max_cycle;Signal;HPM_P1;HPM_P2
2022/02/13 00:01:46;;;;;;;3.75;1.25;;;;;;;-0.93;52.81;100207.63;5027902;28;20049;-76
2022/02/13 00:04:14;;;;;;;4.43;1.00;;;;;;;-0.97;53.28;100203.19;5046425;28;20326;-77
2022/02/13 00:06:40;;;;;;;2.72;1.45;;;;;;;-0.95;53.77;100201.56;5025622;28;20440;-78
2022/02/13 00:09:06;;;;;;;2.28;1.00;;;;;;;-0.98;53.86;100196.31;5029800;28;20036;-77
2022/02/13 00:11:32;;;;;;;1.95;0.80;;;;;;;-1.03;53.12;100187.59;5030012;28;20044;-77
2022/02/13 00:13:57;;;;;;;4.43;1.20;;;;;;;-0.99;53.10;100197.13;5030363;28;20047;-78
2022/02/13 00:16:23;;;;;;;2.10;0.90;;;;;;;-1.03;53.76;100194.38;5030752;28;20033;-77
2022/02/13 00:18:49;;;;;;;3.67;1.20;;;;;;;-0.91;53.59;100207.72;5029495;28;20064;-78
2022/02/13 00:21:15;;;;;;;3.67;1.10;;;;;;;-0.95;53.30;100186.25;5029921;28;20041;-78
2022/02/13 00:23:40;;;;;;;3.08;1.00;;;;;;;-1.12;53.42;100166.75;5012529;28;20037;-77
2022/02/13 00:26:06;;;;;;;2.25;1.10;;;;;;;-0.90;53.39;100201.81;5011916;28;20041;-78
2022/02/13 00:28:36;;;;;;;3.20;1.10;;;;;;;-0.94;53.98;100195.66;5030665;28;20467;-77
2022/02/13 00:31:03;;;;;;;3.38;1.17;;;;;;;-1.11;53.73;100179.59;5029797;28;20476;-75
2022/02/13 00:33:28;;;;;;;1.73;0.90;;;;;;;-1.16;53.80;100172.53;5033626;28;20127;-76
2022/02/13 00:35:54;;;;;;;1.92;1.00;;;;;;;-1.08;54.08;100196.75;5031013;28;20127;-77
2022/02/13 00:38:20;;;;;;;2.70;1.00;;;;;;;-1.14;54.28;100202.47;5048247;28;20036;-78
2022/02/13 00:40:45;;;;;;;1.58;1.02;;;;;;;-1.16;53.89;100198.06;5013022;28;20033;-77
2022/02/13 00:43:11;;;;;;;2.75;1.10;;;;;;;-1.14;54.39;100209.22;5047989;28;20083;-78
2022/02/13 00:45:37;;;;;;;4.03;1.00;;;;;;;-1.17;54.03;100202.31;5013696;28;20091;-76
2022/02/13 00:48:10;;;;;;;2.42;0.90;;;;;;;-1.26;54.15;100192.56;5036706;28;20539;-77
2022/02/13 00:50:36;;;;;;;2.08;1.10;;;;;;;-1.25;54.46;100195.97;5053525;28;20064;-77
2022/02/13 00:53:04;;;;;;;4.22;0.98;;;;;;;-1.24;54.48;100193.50;5036643;28;20554;-79
2022/02/13 00:55:30;;;;;;;3.38;1.00;;;;;;;-1.22;54.64;100191.00;5027624;28;20075;-76
2022/02/13 00:57:57;;;;;;;5.70;1.20;;;;;;;-1.25;54.32;100191.75;5012264;28;20068;-77
2022/02/13 01:00:25;;;;;;;2.58;0.90;;;;;;;-1.42;54.82;100174.78;5051200;28;20041;-79
2022/02/13 01:02:51;;;;;;;1.35;0.63;;;;;;;-1.33;54.92;100194.78;5013363;28;20036;-76
2022/02/13 01:05:17;;;;;;;3.40;1.20;;;;;;;-1.34;55.08;100196.44;5012713;28;20037;-78
2022/02/13 01:07:44;;;;;;;2.33;0.98;;;;;;;-1.40;55.08;100194.47;5029714;28;20039;-76
2022/02/13 01:10:09;;;;;;;1.70;0.80;;;;;;;-1.50;55.04;100176.13;5029790;28;20113;-79
2022/02/13 01:12:36;;;;;;;2.50;0.80;;;;;;;-1.36;54.92;100192.94;5046892;28;20043;-78
2022/02/13 01:15:03;;;;;;;2.65;1.13;;;;;;;-1.44;55.31;100184.94;5029398;28;20053;-82
2022/02/13 01:17:29;;;;;;;2.67;1.10;;;;;;;-1.35;54.95;100204.91;5047520;28;20102;-76
2022/02/13 01:19:55;;;;;;;3.58;1.13;;;;;;;-1.42;55.62;100177.31;5046135;28;20044;-75
2022/02/13 01:22:20;;;;;;;1.40;1.00;;;;;;;-1.43;55.68;100175.56;5047766;28;20404;-78
2022/02/13 01:24:46;;;;;;;2.60;1.02;;;;;;;-1.37;56.02;100191.19;5047583;28;20033;-76
2022/02/13 01:27:12;;;;;;;0.95;0.80;;;;;;;-1.35;55.63;100192.13;4995795;28;20091;-75
2022/02/13 01:29:38;;;;;;;1.85;1.15;;;;;;;-1.33;55.62;100187.97;5048346;28;20041;-79
2022/02/13 01:32:04;;;;;;;2.05;0.98;;;;;;;-1.34;55.65;100186.22;5031353;28;20037;-78
2022/02/13 01:34:30;;;;;;;2.95;1.15;;;;;;;-1.38;56.04;100174.13;5029793;28;20152;-79
2022/02/13 01:36:56;;;;;;;2.88;1.00;;;;;;;-1.23;56.26;100192.72;5029179;28;20124;-75
2022/02/13 01:39:22;;;;;;;2.75;1.00;;;;;;;-1.20;56.30;100194.50;5028535;28;20041;-78
2022/02/13 01:41:49;;;;;;;2.38;0.75;;;;;;;-1.09;56.67;100193.28;5047646;28;20389;-78
2022/02/13 01:44:30;;;;;;;2.58;1.10;;;;;;;-1.10;55.96;100188.13;5013461;28;20098;-77
2022/02/13 01:46:56;;;;;;;1.73;0.95;;;;;;;-0.99;56.15;100197.13;5013996;28;20076;-76
2022/02/13 01:49:23;;;;;;;4.72;1.10;;;;;;;-1.08;56.41;100166.09;5047818;28;20075;-75
2022/02/13 01:51:49;;;;;;;1.15;0.68;;;;;;;-0.89;55.72;100212.88;5048214;28;20126;-78
2022/02/13 01:54:15;;;;;;;2.65;1.23;;;;;;;-0.87;56.40;100203.59;5046824;28;20587;-79
2022/02/13 01:56:42;;;;;;;2.88;0.88;;;;;;;-0.86;56.83;100198.53;5029632;28;20175;-80
2022/02/13 01:59:08;;;;;;;4.13;1.10;;;;;;;-0.85;56.20;100200.28;5005892;28;20033;-77
2022/02/13 02:01:34;;;;;;;3.78;1.08;;;;;;;-0.78;56.82;100207.44;5012467;28;20052;-78
2022/02/13 02:04:00;;;;;;;6.15;1.05;;;;;;;-0.82;56.63;100186.78;5048920;28;20045;-79
2022/02/13 02:06:25;;;;;;;1.50;0.75;;;;;;;-0.70;56.79;100202.66;5028884;28;20037;-76
2022/02/13 02:08:53;;;;;;;2.00;0.90;;;;;;;-0.87;56.55;100168.69;5027739;28;20571;-77
2022/02/13 02:11:18;;;;;;;3.15;1.00;;;;;;;-0.79;56.68;100187.78;5030618;28;20119;-76
2022/02/13 02:13:44;;;;;;;4.03;1.33;;;;;;;-0.73;56.79;100183.75;5051975;28;20534;-76
2022/02/13 02:16:10;;;;;;;4.55;1.10;;;;;;;-0.98;56.87;100147.78;5013804;28;20037;-76
2022/02/13 02:18:35;;;;;;;3.20;1.10;;;;;;;-0.66;57.08;100190.91;5014596;28;20037;-75
2022/02/13 02:21:05;;;;;;;4.85;1.15;;;;;;;-0.51;56.64;100201.75;5052855;28;20040;-76
2022/02/13 02:23:32;;;;;;;5.40;1.20;;;;;;;-0.45;57.46;100206.25;5029458;28;20282;-77
2022/02/13 02:25:58;;;;;;;4.05;1.00;;;;;;;-0.65;56.89;100167.94;5032876;28;20076;-76
2022/02/13 02:28:23;;;;;;;5.72;1.00;;;;;;;-0.51;57.11;100196.66;5033108;28;20087;-76
2022/02/13 02:30:49;;;;;;;2.95;1.00;;;;;;;-0.48;57.55;100206.13;5053251;28;20094;-75
2022/02/13 02:33:15;;;;;;;5.22;1.05;;;;;;;-0.39;57.50;100210.75;5037355;28;20036;-77
2022/02/13 02:35:41;;;;;;;3.88;1.00;;;;;;;-0.39;57.45;100210.75;5035821;28;20520;-76
2022/02/13 02:38:06;;;;;;;2.28;0.95;;;;;;;-0.33;57.00;100224.66;5028908;28;20125;-77
2022/02/13 02:40:32;;;;;;;3.60;1.10;;;;;;;-0.37;57.39;100214.25;5069522;28;20060;-77
2022/02/13 02:42:59;;;;;;;4.50;0.95;;;;;;;-0.35;57.62;100217.75;5053091;28;20082;-77
2022/02/13 02:45:24;;;;;;;2.28;1.15;;;;;;;-0.34;56.93;100199.03;5037185;28;20036;-75
2022/02/13 02:47:50;;;;;;;2.17;1.00;;;;;;;-0.23;56.98;100214.81;5054638;28;20132;-77
2022/02/13 02:50:16;;;;;;;3.03;0.90;;;;;;;-0.28;57.71;100193.28;5047827;28;20062;-76
2022/02/13 02:52:42;;;;;;;2.17;1.00;;;;;;;-0.18;57.93;100211.63;5046618;28;20458;-78
2022/02/13 02:55:08;;;;;;;4.28;0.80;;;;;;;-0.26;57.37;100195.13;5026166;28;20400;-76
2022/02/13 02:57:34;;;;;;;2.80;0.80;;;;;;;-0.19;57.72;100202.22;5048190;28;20135;-75
2022/02/13 03:00:01;;;;;;;3.47;1.10;;;;;;;-0.21;58.10;100202.97;5029275;28;20048;-76
2022/02/13 03:02:27;;;;;;;1.27;0.90;;;;;;;-0.10;57.75;100217.06;5011652;28;20047;-77
2022/02/13 03:04:53;;;;;;;2.08;1.10;;;;;;;-0.02;57.66;100215.69;5029327;28;20049;-78
2022/02/13 03:07:18;;;;;;;2.13;1.00;;;;;;;-0.02;57.62;100220.81;5025199;28;20132;-76
2022/02/13 03:09:44;;;;;;;2.80;0.90;;;;;;;-0.03;57.25;100208.84;5046193;28;20044;-76
2022/02/13 03:12:10;;;;;;;1.50;0.70;;;;;;;-0.17;58.16;100190.34;5046495;28;20045;-77
2022/02/13 03:14:36;;;;;;;2.53;0.93;;;;;;;-0.11;58.03;100192.28;5046524;28;20075;-76
2022/02/13 03:17:06;;;;;;;6.65;1.17;;;;;;;0.03;57.37;100220.13;5045763;28;20065;-79
2022/02/13 03:19:33;;;;;;;4.97;1.13;;;;;;;0.04;57.50;100225.31;5045358;28;20049;-75
2022/02/13 03:21:59;;;;;;;1.20;0.88;;;;;;;0.05;58.23;100228.75;5045083;28;20045;-77
2022/02/13 03:24:25;;;;;;;1.73;0.80;;;;;;;0.01;57.99;100203.84;5026032;28;20041;-78
2022/02/13 03:26:52;;;;;;;2.55;1.10;;;;;;;0.13;57.64;100222.25;5046405;28;20064;-76
2022/02/13 03:29:18;;;;;;;2.50;1.05;;;;;;;0.17;57.53;100225.81;5010220;28;20103;-77
2022/02/13 03:31:43;;;;;;;2.90;0.90;;;;;;;0.16;57.61;100218.94;5044184;28;20505;-76
2022/02/13 03:34:10;;;;;;;2.80;1.05;;;;;;;0.03;57.72;100189.44;5027686;28;20424;-78
2022/02/13 03:36:36;;;;;;;2.38;0.98;;;;;;;0.20;58.29;100220.81;5026498;28;20132;-78
2022/02/13 03:39:04;;;;;;;1.95;0.90;;;;;;;0.10;57.80;100202.53;5007950;28;20124;-77
2022/02/13 03:41:30;;;;;;;4.57;1.00;;;;;;;0.11;58.11;100198.31;5027548;28;20045;-78
2022/02/13 03:43:56;;;;;;;2.35;1.10;;;;;;;0.24;57.76;100226.13;5049567;28;20715;-77
2022/02/13 03:46:21;;;;;;;2.63;1.02;;;;;;;0.19;57.60;100219.06;5009939;28;20697;-76
2022/02/13 03:48:47;;;;;;;4.10;1.15;;;;;;;0.27;58.40;100233.94;5013310;28;20432;-78
2022/02/13 03:51:13;;;;;;;2.83;1.58;;;;;;;0.32;57.93;100226.41;5019939;28;20049;-76
2022/02/13 03:53:39;;;;;;;3.95;1.20;;;;;;;0.32;57.67;100221.28;5017910;28;20061;-78
2022/02/13 03:56:05;;;;;;;3.78;1.45;;;;;;;0.34;57.75;100224.78;5032209;28;20087;-76
2022/02/13 03:58:30;;;;;;;3.03;1.38;;;;;;;0.46;57.59;100229.53;5050842;28;20044;-77
2022/02/13 04:00:56;;;;;;;5.47;1.60;;;;;;;0.39;58.54;100212.16;5030182;28;20045;-76
2022/02/13 04:03:22;;;;;;;4.47;1.52;;;;;;;0.53;57.77;100228.06;5031625;28;20062;-77
2022/02/13 04:05:48;;;;;;;3.15;1.30;;;;;;;0.59;57.63;100226.59;5028995;28;20042;-78
2022/02/13 04:08:14;;;;;;;5.43;1.50;;;;;;;0.62;57.76;100225.88;5048468;28;20751;-76
2022/02/13 04:10:40;;;;;;;2.38;1.17;;;;;;;0.65;57.38;100228.56;5031743;28;20223;-77
2022/02/13 04:13:06;;;;;;;3.67;2.00;;;;;;;0.58;57.67;100201.81;5029241;28;20037;-76
2022/02/13 04:15:31;;;;;;;7.15;1.35;;;;;;;0.59;57.31;100215.50;5048381;28;20481;-76
2022/02/13 04:17:57;;;;;;;4.88;1.38;;;;;;;0.72;57.79;100237.34;5013111;28;20373;-77
2022/02/13 04:20:23;;;;;;;7.25;1.50;;;;;;;0.65;57.42;100213.19;5029000;28;20037;-76
2022/02/13 04:22:49;;;;;;;3.95;1.20;;;;;;;0.81;57.89;100237.66;5028544;28;20496;-76
2022/02/13 04:25:14;;;;;;;4.95;1.55;;;;;;;0.83;57.21;100236.03;5014709;28;20036;-75
2022/02/13 04:27:41;;;;;;;3.80;1.35;;;;;;;0.76;57.14;100221.28;5030176;28;20047;-77
2022/02/13 04:30:08;;;;;;;4.70;1.77;;;;;;;0.68;58.01;100208.16;5047944;28;20048;-76
2022/02/13 04:32:34;;;;;;;5.90;1.40;;;;;;;0.87;57.30;100229.38;5030211;28;20487;-76
2022/02/13 04:35:00;;;;;;;3.92;1.30;;;;;;;0.95;57.87;100221.97;5030144;28;20057;-78
2022/02/13 04:37:26;;;;;;;3.40;1.20;;;;;;;1.10;57.53;100245.56;5047792;28;20532;-75
2022/02/13 04:39:51;;;;;;;4.32;1.27;;;;;;;0.97;56.98;100212.63;5030140;28;20492;-78
2022/02/13 04:42:18;;;;;;;2.45;1.25;;;;;;;1.04;57.02;100218.03;5011577;28;20045;-77
2022/02/13 04:44:46;;;;;;;4.63;1.30;;;;;;;1.03;57.58;100228.22;5048479;28;20066;-77
2022/02/13 04:47:12;;;;;;;4.65;1.30;;;;;;;1.19;57.08;100257.84;5027096;28;20106;-76
2022/02/13 04:49:38;;;;;;;5.25;1.10;;;;;;;1.21;57.43;100258.78;5029658;28;20724;-79
2022/02/13 04:52:04;;;;;;;3.80;1.20;;;;;;;1.20;57.00;100252.81;5046791;28;20416;-77
2022/02/13 04:54:30;;;;;;;2.47;1.30;;;;;;;1.22;56.85;100255.41;5012959;28;20045;-77
2022/02/13 04:56:56;;;;;;;2.55;1.05;;;;;;;1.09;56.97;100227.59;5029197;28;20133;-77
2022/02/13 04:59:22;;;;;;;7.03;1.58;;;;;;;1.13;56.97;100226.84;5046805;28;20040;-79
2022/02/13 05:01:47;;;;;;;2.72;1.15;;;;;;;1.27;56.84;100250.44;5046341;28;20404;-78
2022/02/13 05:04:13;;;;;;;3.83;1.02;;;;;;;1.35;56.24;100252.44;5012675;28;20499;-78
2022/02/13 05:06:39;;;;;;;3.10;1.20;;;;;;;1.39;56.77;100262.81;5045528;28;20041;-77
2022/02/13 05:09:05;;;;;;;5.68;1.42;;;;;;;1.32;56.24;100243.78;5047129;28;20045;-76
2022/02/13 05:11:30;;;;;;;2.80;1.23;;;;;;;1.39;56.07;100258.59;5011096;28;20139;-77
2022/02/13 05:13:56;;;;;;;3.90;1.10;;;;;;;1.36;56.32;100261.03;5028910;28;20049;-77
2022/02/13 05:16:22;;;;;;;3.33;1.52;;;;;;;1.29;56.11;100269.31;5045708;28;20571;-79
2022/02/13 05:18:48;;;;;;;3.60;1.10;;;;;;;1.24;56.51;100247.75;5046367;28;20040;-78
2022/02/13 05:21:15;;;;;;;5.75;1.85;;;;;;;1.44;56.48;100256.19;5046514;28;20059;-78
2022/02/13 05:23:41;;;;;;;3.05;1.60;;;;;;;1.41;55.81;100250.94;5047088;28;20068;-76
2022/02/13 05:26:07;;;;;;;5.38;1.27;;;;;;;1.19;55.61;100220.28;5047310;28;20081;-76
2022/02/13 05:28:33;;;;;;;4.07;1.40;;;;;;;1.44;56.25;100261.31;5027700;28;20051;-77
2022/02/13 05:30:58;;;;;;;6.40;1.60;;;;;;;1.31;55.91;100240.38;5004028;28;20529;-78
2022/02/13 05:33:24;;;;;;;6.38;1.55;;;;;;;1.37;55.97;100257.66;5028882;28;20048;-76
2022/02/13 05:35:50;;;;;;;3.50;1.27;;;;;;;1.42;55.95;100258.69;5013837;28;20131;-78
2022/02/13 05:38:15;;;;;;;8.05;1.65;;;;;;;1.27;56.06;100247.88;5028621;28;20047;-76
2022/02/13 05:40:41;;;;;;;4.15;1.33;;;;;;;1.40;55.92;100270.59;5030643;28;20091;-78
2022/02/13 05:43:07;;;;;;;6.88;2.20;;;;;;;1.32;56.20;100267.75;5047551;28;20518;-77
2022/02/13 05:45:33;;;;;;;5.90;2.10;;;;;;;1.32;55.99;100270.31;5029247;28;20679;-77
2022/02/13 05:47:58;;;;;;;4.35;1.55;;;;;;;1.32;55.96;100269.44;4997095;28;20041;-77
2022/02/13 05:50:24;;;;;;;7.53;1.98;;;;;;;1.45;56.07;100273.31;5046647;28;20574;-75
2022/02/13 05:52:50;;;;;;;4.90;1.60;;;;;;;1.47;55.49;100277.66;5046718;28;20052;-76
2022/02/13 05:55:16;;;;;;;4.18;1.50;;;;;;;1.54;55.98;100280.47;4995813;28;20052;-77
2022/02/13 05:57:43;;;;;;;5.00;1.48;;;;;;;1.46;55.46;100260.53;5025376;28;20135;-78
2022/02/13 06:00:11;;;;;;;4.47;1.50;;;;;;;1.50;55.73;100254.69;5025414;28;20516;-79
2022/02/13 06:02:39;;;;;;;6.07;1.80;;;;;;;1.64;56.01;100280.84;5011817;28;20465;-75
2022/02/13 06:05:05;;;;;;;3.30;1.80;;;;;;;1.68;55.66;100276.69;5028143;28;20041;-79
2022/02/13 06:07:39;;;;;;;5.90;1.63;;;;;;;1.76;55.35;100276.97;5046555;28;20032;-76
2022/02/13 06:10:07;;;;;;;2.47;1.20;;;;;;;1.85;55.48;100274.69;5028045;28;20051;-77
2022/02/13 06:12:33;;;;;;;4.03;1.33;;;;;;;1.88;55.29;100276.47;4995629;28;20067;-77
2022/02/13 06:15:02;;;;;;;6.85;1.55;;;;;;;1.89;54.75;100275.66;5028693;28;20045;-77
2022/02/13 06:17:29;;;;;;;4.05;1.25;;;;;;;1.94;55.26;100280.16;5012741;28;20037;-76
2022/02/13 06:19:55;;;;;;;6.15;1.80;;;;;;;1.84;54.79;100249.00;5032224;28;20643;-77
2022/02/13 06:22:21;;;;;;;4.93;1.83;;;;;;;1.84;55.00;100264.41;5011058;28;20048;-77
2022/02/13 06:24:50;;;;;;;4.30;2.00;;;;;;;1.79;55.01;100265.09;5015248;28;20063;-77
2022/02/13 06:27:15;;;;;;;5.13;1.50;;;;;;;1.96;54.69;100282.75;5030300;28;21721;-79
2022/02/13 06:29:41;;;;;;;2.75;1.48;;;;;;;1.87;55.13;100265.34;5026706;28;20072;-78
2022/02/13 06:32:13;;;;;;;6.72;2.13;;;;;;;1.86;54.90;100270.47;5013617;28;20044;-78
2022/02/13 06:34:39;;;;;;;;;;;;;;;1.90;54.93;100279.97;5045226;28;20091;-78
2022/02/13 06:37:05;;;;;;;5.03;1.73;;;;;;;1.89;55.12;100291.06;5012910;28;19921;-79
2022/02/13 06:39:35;;;;;;;4.40;1.52;;;;;;;1.93;54.67;100288.69;5015358;28;20122;-77
2022/02/13 06:42:01;;;;;;;5.30;1.73;;;;;;;1.99;54.45;100293.13;5050039;28;20110;-76
2022/02/13 06:44:27;;;;;;;6.85;2.67;;;;;;;1.73;54.96;100246.91;5031484;28;20076;-76
2022/02/13 06:46:53;;;;;;;5.38;1.77;;;;;;;2.04;55.03;100286.47;5010823;28;20136;-78
2022/02/13 06:49:19;;;;;;;4.95;1.50;;;;;;;2.04;54.58;100283.03;5028892;28;20048;-79
2022/02/13 06:51:44;;;;;;;4.93;1.42;;;;;;;2.09;54.53;100302.91;5028480;28;20045;-78
2022/02/13 06:54:10;;;;;;;3.53;1.23;;;;;;;2.08;54.67;100308.88;5009982;28;20041;-79
2022/02/13 06:56:36;;;;;;;7.28;1.33;;;;;;;2.07;54.61;100291.72;5029798;28;20511;-78
2022/02/13 06:59:03;;;;;;;7.55;1.50;;;;;;;2.19;54.76;100310.91;5046378;28;20052;-77
2022/02/13 07:01:28;;;;;;;3.38;1.20;;;;;;;2.18;54.50;100296.31;5039985;28;20063;-79
2022/02/13 07:03:57;;;;;;;5.97;1.73;;;;;;;2.23;54.43;100310.19;5012248;28;20066;-76
2022/02/13 07:06:23;;;;;;;2.88;1.75;;;;;;;2.25;54.47;100306.84;5029124;28;20824;-75
2022/02/13 07:08:52;;;;;;;3.85;1.45;;;;;;;2.31;53.87;100300.16;5033416;28;20164;-77
2022/02/13 07:11:18;;;;;;;4.43;1.40;;;;;;;2.19;53.88;100280.09;5048790;28;20052;-77
2022/02/13 07:13:44;;;;;;;4.22;1.20;;;;;;;2.26;54.00;100288.03;5028412;28;20032;-79
2022/02/13 07:16:09;;;;;;;7.63;1.35;;;;;;;2.25;54.20;100282.88;5046947;28;20511;-81
2022/02/13 07:18:35;;;;;;;3.97;1.50;;;;;;;2.28;54.36;100264.09;5049815;28;20954;-78
2022/02/13 07:21:01;;;;;;;6.63;2.00;;;;;;;2.47;53.64;100286.13;5049987;28;20041;-81
2022/02/13 07:23:27;;;;;;;3.80;1.60;;;;;;;2.36;54.05;100270.38;5018753;28;20532;-80
2022/02/13 07:25:53;;;;;;;3.65;1.58;;;;;;;2.56;54.12;100302.72;5016047;28;20082;-77
2022/02/13 07:31:09;;;;;;;3.33;1.38;;;;;;;2.54;53.56;100306.03;5034272;28;20051;-79
2022/02/13 07:33:37;;;;;;;4.28;1.55;;;;;;;2.55;53.92;100315.50;5052196;28;20099;-80
2022/02/13 07:36:06;;;;;;;7.25;1.67;;;;;;;2.52;53.70;100306.00;5030747;28;20148;-80
2022/02/13 07:38:39;;;;;;;4.57;1.55;;;;;;;2.41;53.56;100291.94;5037938;28;20144;-81
2022/02/13 07:41:06;;;;;;;10.95;1.65;;;;;;;2.54;54.04;100311.16;5052279;28;20037;-81
2022/02/13 07:43:34;;;;;;;3.75;1.55;;;;;;;2.61;53.12;100317.41;5052079;28;20044;-80
2022/02/13 07:46:00;;;;;;;3.25;1.60;;;;;;;2.70;53.94;100333.09;5016822;28;20045;-81
2022/02/13 07:48:27;;;;;;;6.43;1.80;;;;;;;2.74;53.62;100316.09;5035613;28;20441;-81
2022/02/13 07:50:53;;;;;;;5.68;1.90;;;;;;;2.46;53.63;100272.38;5021797;28;20125;-81
2022/02/13 07:53:20;;;;;;;6.85;2.08;;;;;;;2.84;53.62;100344.69;5047916;28;20060;-80
2022/02/13 07:55:47;;;;;;;7.82;1.65;;;;;;;2.58;53.59;100307.88;5026530;28;20389;-82
2022/02/13 07:58:13;;;;;;;3.58;1.65;;;;;;;2.80;53.23;100341.97;5037639;28;20096;-81
2022/02/13 08:00:39;;;;;;;9.05;2.10;;;;;;;2.54;53.43;100306.03;5038445;28;20472;-83
2022/02/13 08:03:05;;;;;;;4.00;1.83;;;;;;;2.43;53.32;100274.00;5022718;28;20040;-81
2022/02/13 08:05:31;;;;;;;5.53;1.60;;;;;;;2.85;52.99;100330.13;5052107;28;20041;-82
2022/02/13 08:07:57;;;;;;;7.38;2.17;;;;;;;2.73;54.02;100311.78;5018692;28;20037;-81
2022/02/13 08:10:23;;;;;;;4.97;1.83;;;;;;;2.69;53.17;100319.38;5055603;28;20091;-81
2022/02/13 08:12:49;;;;;;;6.63;2.70;;;;;;;2.87;53.39;100343.91;5034298;28;20071;-79
2022/02/13 08:15:17;;;;;;;6.40;1.95;;;;;;;2.93;53.55;100344.13;5020552;28;20499;-82
2022/02/13 08:17:47;;;;;;;4.07;1.80;;;;;;;2.92;53.40;100336.34;5040413;28;20060;-77
2022/02/13 08:20:14;;;;;;;4.63;1.50;;;;;;;2.94;53.21;100327.88;5034538;28;20051;-79
2022/02/13 08:22:45;;;;;;;5.90;2.00;;;;;;;2.71;53.39;100293.72;5054258;28;20047;-80
2022/02/13 08:25:11;;;;;;;5.55;2.03;;;;;;;2.90;52.94;100320.00;5003388;28;20041;-80
2022/02/13 08:27:37;;;;;;;8.23;2.05;;;;;;;3.03;53.29;100328.94;5050490;28;20060;-79
2022/02/13 08:30:04;;;;;;;8.13;2.28;;;;;;;3.06;53.01;100323.91;5032554;28;20540;-82
2022/02/13 08:32:36;;;;;;;5.28;2.28;;;;;;;3.28;52.85;100353.72;5000337;28;20799;-81
2022/02/13 08:35:02;;;;;;;5.32;1.70;;;;;;;3.38;52.61;100331.72;5027919;28;20053;-79
2022/02/13 08:37:29;;;;;;;7.93;2.08;;;;;;;3.73;52.74;100360.13;4998072;28;20071;-78
2022/02/13 08:39:55;;;;;;;7.70;2.10;;;;;;;3.75;52.04;100359.34;5015634;28;20077;-79
2022/02/13 08:42:21;;;;;;;7.10;1.83;;;;;;;4.00;52.77;100349.72;4977694;28;20044;-82
2022/02/13 08:44:50;;;;;;;4.53;1.67;;;;;;;4.07;52.42;100368.81;4981711;28;20143;-79
2022/02/13 08:47:16;;;;;;;4.57;1.42;;;;;;;4.62;52.69;100360.72;4980358;28;20033;-82
2022/02/13 08:49:42;;;;;;;6.50;1.60;;;;;;;6.34;52.21;100359.16;4999935;28;20045;-81
2022/02/13 08:52:10;;;;;;;3.20;1.55;;;;;;;8.03;50.86;100339.84;5014675;28;20048;-80
2022/02/13 08:54:39;;;;;;;;;;;;;;;8.65;48.24;100350.81;5031510;28;20468;-82
2022/02/13 08:57:05;;;;;;;3.55;1.40;;;;;;;8.50;46.77;100297.06;4997307;28;19967;-82
2022/02/13 08:59:31;;;;;;;6.85;1.42;;;;;;;8.44;46.72;100342.84;5012741;28;20176;-80
2022/02/13 09:01:57;;;;;;;5.60;2.00;;;;;;;8.18;45.95;100354.69;5014519;28;20045;-79
2022/02/13 09:04:22;;;;;;;4.63;1.52;;;;;;;8.26;45.38;100342.69;5034086;28;20412;-82
2022/02/13 09:06:56;;;;;;;5.80;1.90;;;;;;;7.58;45.02;100285.84;5035526;28;20042;-81
2022/02/13 09:09:25;;;;;;;3.83;1.80;;;;;;;7.65;45.57;100355.00;5018338;28;20037;-80
2022/02/13 09:11:52;;;;;;;3.45;1.73;;;;;;;9.20;45.84;100324.34;4999917;28;20048;-80
2022/02/13 09:14:18;;;;;;;3.55;1.80;;;;;;;9.80;44.39;100303.78;5003485;28;20029;-82
2022/02/13 09:16:45;;;;;;;4.35;1.92;;;;;;;9.80;43.33;100197.22;5019011;28;20139;-84
2022/02/13 09:19:11;;;;;;;5.55;1.90;;;;;;;11.85;43.34;100226.94;5017535;28;20033;-84
2022/02/13 09:21:37;;;;;;;4.35;1.42;;;;;;;13.60;40.34;100294.84;5015431;28;20049;-88
2022/02/13 09:24:09;;;;;;;3.65;1.50;;;;;;;13.35;38.00;100269.88;5039477;28;20061;-83
2022/02/13 09:26:39;;;;;;;5.57;1.77;;;;;;;13.93;38.53;100209.78;5020029;28;20139;-82
2022/02/13 09:29:05;;;;;;;5.60;1.55;;;;;;;14.79;37.10;100308.69;5018669;28;20049;-79
2022/02/13 09:31:33;;;;;;;6.00;2.20;;;;;;;15.16;36.36;100241.63;5018518;28;20127;-81
2022/02/13 09:33:59;;;;;;;5.53;1.90;;;;;;;15.90;35.76;100300.38;4999514;28;20216;-79
2022/02/13 09:36:25;;;;;;;5.10;2.08;;;;;;;16.15;34.91;100291.03;5033577;28;20040;-82
2022/02/13 09:38:50;;;;;;;3.58;1.63;;;;;;;17.21;34.09;100297.97;5052767;28;20044;-79
2022/02/13 09:41:34;;;;;;;3.35;1.75;;;;;;;17.81;32.65;100291.81;5033311;28;20152;-79
2022/02/13 09:44:00;;;;;;;4.95;1.80;;;;;;;17.20;31.88;100300.63;5033910;28;20451;-80
2022/02/13 09:46:28;;;;;;;5.43;1.80;;;;;;;16.98;32.31;100295.97;5032279;28;20037;-79
2022/02/13 09:48:58;;;;;;;3.97;1.90;;;;;;;16.27;31.24;100312.63;5055779;28;21146;-82
2022/02/13 09:51:24;;;;;;;5.57;1.80;;;;;;;14.99;32.03;100284.75;5043911;28;20140;-81
2022/02/13 09:53:51;;;;;;;5.97;1.73;;;;;;;14.05;32.77;100292.44;5028801;28;20040;-80
2022/02/13 09:56:17;;;;;;;3.30;1.50;;;;;;;13.68;32.96;100304.31;5053456;28;20554;-82
2022/02/13 09:58:44;;;;;;;5.28;2.20;;;;;;;12.57;33.46;100306.41;5017911;28;20120;-80
2022/02/13 10:01:11;;;;;;;3.65;1.80;;;;;;;12.01;33.60;100332.94;5025699;28;20057;-81
2022/02/13 10:03:46;;;;;;;3.15;1.60;;;;;;;11.12;34.39;100335.03;5000166;28;20048;-82
2022/02/13 10:06:12;;;;;;;3.03;1.42;;;;;;;10.63;34.99;100333.34;5052034;28;20439;-79
2022/02/13 10:08:44;;;;;;;4.15;1.30;;;;;;;10.08;36.15;100306.44;5015824;28;20041;-83
2022/02/13 10:11:17;;;;;;;4.35;1.42;;;;;;;9.28;36.18;100236.97;5047363;28;20052;-81
2022/02/13 10:13:45;;;;;;;4.32;2.22;;;;;;;9.00;36.93;100280.13;5035148;28;20412;-80
2022/02/13 10:16:15;;;;;;;3.08;1.42;;;;;;;9.33;37.05;100341.75;5065219;28;20104;-85
2022/02/13 10:18:51;;;;;;;5.55;1.73;;;;;;;8.66;37.40;100324.91;5008785;28;20047;-82
2022/02/13 10:21:39;;;;;;;5.32;1.50;;;;;;;8.50;38.07;100352.44;5032428;28;20135;-80
2022/02/13 10:24:29;;;;;;;4.55;1.58;;;;;;;8.31;38.56;100343.56;5053580;28;20057;-79
2022/02/13 10:26:57;;;;;;;4.13;1.40;;;;;;;8.28;39.23;100346.13;5015954;28;20413;-81
2022/02/13 10:29:34;;;;;;;4.47;1.63;;;;;;;8.37;39.67;100342.78;5053116;28;20045;-82
2022/02/13 10:32:22;;;;;;;3.25;1.85;;;;;;;8.41;39.53;100341.94;5022278;28;20056;-82
2022/02/13 10:35:13;;;;;;;2.97;1.60;;;;;;;7.74;39.53;100254.91;5020668;28;20049;-80
2022/02/13 10:37:52;;;;;;;2.63;1.52;;;;;;;8.42;39.68;100338.47;5057333;28;20037;-81
2022/02/13 10:40:22;;;;;;;2.55;1.55;;;;;;;7.68;39.99;100235.88;5034659;28;20124;-83
2022/02/13 10:42:48;;;;;;;4.22;1.95;;;;;;;8.07;39.52;100331.25;5037868;28;20040;-82
2022/02/13 10:45:21;;;;;;;11.35;1.88;;;;;;;7.61;39.73;100290.22;5028673;28;20099;-81
2022/02/13 10:48:00;;;;;;;6.13;1.92;;;;;;;7.38;40.63;100330.50;5029344;28;20045;-80
2022/02/13 10:50:32;;;;;;;4.88;2.03;;;;;;;7.23;40.35;100326.00;5049065;28;20051;-85
2022/02/13 10:53:01;;;;;;;5.68;2.50;;;;;;;7.16;41.26;100360.44;5045857;28;20068;-82
2022/02/13 10:55:32;;;;;;;5.07;2.10;;;;;;;6.22;41.39;100159.91;5028033;28;20037;-81
2022/02/13 10:58:00;;;;;;;4.30;2.13;;;;;;;7.08;41.20;100341.31;5012996;28;20032;-80
2022/02/13 11:00:31;;;;;;;5.35;1.80;;;;;;;6.78;41.32;100321.91;5048434;28;20128;-80
2022/02/13 11:03:06;;;;;;;3.42;1.60;;;;;;;6.22;41.11;100264.19;5023892;28;20051;-83
2022/02/13 11:05:38;;;;;;;6.25;3.15;;;;;;;6.58;41.98;100340.56;5016633;28;20033;-81
2022/02/13 11:08:15;;;;;;;4.93;1.50;;;;;;;5.79;42.85;100219.50;5034611;28;20059;-81
2022/02/13 11:10:50;;;;;;;4.45;1.77;;;;;;;6.50;42.27;100355.13;5018620;28;20119;-83
2022/02/13 11:13:36;;;;;;;4.10;1.85;;;;;;;5.76;42.28;100279.69;5030970;28;20048;-81
2022/02/13 11:16:26;;;;;;;5.10;1.38;;;;;;;5.96;42.54;100349.81;5024500;28;20056;-81
2022/02/13 11:19:13;;;;;;;3.63;1.58;;;;;;;5.89;43.29;100347.94;5020516;28;20131;-82
2022/02/13 11:22:20;;;;;;;5.10;2.22;;;;;;;5.54;43.64;100373.97;5021477;28;20046;-82
2022/02/13 11:24:51;;;;;;;3.60;1.50;;;;;;;5.32;43.91;100360.59;5057084;28;20036;-84
2022/02/13 11:27:20;;;;;;;7.85;3.00;;;;;;;5.14;44.76;100371.38;5020731;28;20041;-79
2022/02/13 11:30:10;;;;;;;3.85;1.52;;;;;;;3.86;45.28;100153.66;5034189;28;20160;-85
2022/02/13 11:33:02;;;;;;;2.92;1.67;;;;;;;4.21;45.00;100212.00;5011288;28;20076;-83
2022/02/13 11:35:59;;;;;;;8.57;2.15;;;;;;;4.52;45.21;100189.50;5026566;28;20057;-82
2022/02/13 11:38:52;;;;;;;3.17;1.80;;;;;;;5.65;45.50;100348.34;5015163;28;20041;-81